London, Minnesota
Current Conditions -  °F | °C
As of 6:15 PM on Wednesday 22 Oct 2014 (Local Time) from KAEL Reporting Station
Scattered Clouds Scattered Clouds  
Wind Chill: 57°   Ceiling: Unl
Heat Index: 57°   Visibility: 10mi
Dew Point: 41°   Wind: 18mph
Humidity: 55%   Direction: 150°SSE
Pressure: 30.07"   Gusts: 24mph
Location:  43.5439°N, 93.1707°W
Report Text: KAEL 222315Z AUTO 15016G21KT 10SM SCT060 SCT080 SCT100 14/05 A3007 RMK AO2
Loading
Personal Weather Stations






























Interactive Weather Map New forecast layout! Learn more

10-Day Weather Forecast

Advertisements
Track Severe Weather on mobile